Time;durP1;ratioP1;P1;durP2;ratioP2;P2;SDS_P1;SDS_P2;PMS_P1;PMS_P2;Temp;Humidity;BMP_temperature;BMP_pressure;BME280_temperature;BME280_humidity;BME280_pressure;Samples;Min_cycle;Max_cycle;Signal;HPM_P1;HPM_P2
2021/03/17 00:01:43;;;;;;;5.85;2.15;;;1.60;99.90;;;;;;5045596;28;20052;-74
2021/03/17 00:04:27;;;;;;;4.68;2.28;;;1.50;99.90;;;;;;5049032;28;20526;-73
2021/03/17 00:07:12;;;;;;;7.43;3.00;;;1.50;99.90;;;;;;5048673;28;20090;-74
2021/03/17 00:09:56;;;;;;;6.38;2.78;;;1.60;99.90;;;;;;5048171;28;20079;-75
2021/03/17 00:12:40;;;;;;;5.50;2.83;;;1.50;99.90;;;;;;5047791;28;20198;-76
2021/03/17 00:15:28;;;;;;;4.70;2.50;;;1.60;99.90;;;;;;5049847;28;20044;-75
2021/03/17 00:18:14;;;;;;;3.90;2.20;;;1.60;99.90;;;;;;5048462;28;20052;-75
2021/03/17 00:20:58;;;;;;;2.85;2.00;;;1.60;99.90;;;;;;5048354;28;20048;-75
2021/03/17 00:23:42;;;;;;;2.80;1.92;;;1.60;99.90;;;;;;5049807;28;20089;-74
2021/03/17 00:26:26;;;;;;;3.03;1.77;;;1.60;99.90;;;;;;5045847;28;20098;-73
2021/03/17 00:29:11;;;;;;;3.13;2.10;;;1.60;99.90;;;;;;5077811;28;20098;-74
2021/03/17 00:31:55;;;;;;;3.95;1.95;;;1.60;99.90;;;;;;5046648;28;20459;-74
2021/03/17 00:34:39;;;;;;;2.75;1.98;;;1.60;99.90;;;;;;5050835;28;20171;-74
2021/03/17 00:37:24;;;;;;;2.92;1.70;;;1.60;99.90;;;;;;5051498;28;20044;-74
2021/03/17 00:40:09;;;;;;;3.13;1.77;;;1.60;99.90;;;;;;5052467;28;20048;-74
2021/03/17 00:42:53;;;;;;;1.83;1.48;;;1.60;99.90;;;;;;5052037;28;20511;-74
2021/03/17 00:45:37;;;;;;;2.55;1.50;;;1.60;99.90;;;;;;5052734;28;20065;-74
2021/03/17 00:48:12;;;;;;;2.97;1.95;;;1.60;99.90;;;;;;5051868;28;20048;-73
2021/03/17 00:50:41;;;;;;;2.72;1.98;;;1.60;99.90;;;;;;5083779;28;20094;-74
2021/03/17 00:53:07;;;;;;;2.38;1.80;;;1.50;99.90;;;;;;5052210;28;20447;-74
2021/03/17 00:55:32;;;;;;;2.65;1.63;;;1.50;99.90;;;;;;5083998;28;20052;-73
2021/03/17 00:58:20;;;;;;;2.22;1.40;;;1.50;99.90;;;;;;5083470;28;20059;-73
2021/03/17 01:00:45;;;;;;;2.63;1.90;;;1.50;99.90;;;;;;5051444;28;20111;-74
2021/03/17 01:03:11;;;;;;;1.67;1.48;;;1.50;99.90;;;;;;5048082;28;20039;-74
2021/03/17 01:05:37;;;;;;;2.33;1.77;;;1.50;99.90;;;;;;5052064;28;20117;-73
2021/03/17 01:08:03;;;;;;;2.78;1.58;;;1.50;99.90;;;;;;5051379;28;20033;-74
2021/03/17 01:10:38;;;;;;;2.83;1.77;;;1.50;99.90;;;;;;5051393;28;20037;-74
2021/03/17 01:13:05;;;;;;;3.63;2.47;;;1.50;99.90;;;;;;5051851;28;20034;-75
2021/03/17 01:15:32;;;;;;;2.85;1.77;;;1.50;99.90;;;;;;5051933;28;20200;-74
2021/03/17 01:17:57;;;;;;;3.05;2.17;;;1.50;99.90;;;;;;5051328;28;20072;-74
2021/03/17 01:20:28;;;;;;;3.75;1.73;;;1.50;99.90;;;;;;5051393;28;20532;-73
2021/03/17 01:22:55;;;;;;;3.65;2.70;;;1.50;99.90;;;;;;5051449;28;20037;-74
2021/03/17 01:25:26;;;;;;;4.38;2.30;;;1.40;99.90;;;;;;5051488;28;20063;-74
2021/03/17 01:27:52;;;;;;;3.03;2.17;;;1.40;99.90;;;;;;5050963;28;20127;-74
2021/03/17 01:30:20;;;;;;;3.60;2.28;;;1.40;99.90;;;;;;5050875;28;20108;-74
2021/03/17 01:32:46;;;;;;;4.15;2.55;;;1.40;99.90;;;;;;5042283;28;20124;-74
2021/03/17 01:35:14;;;;;;;5.82;2.85;;;1.40;99.90;;;;;;5028916;28;20120;-73
2021/03/17 01:37:39;;;;;;;3.80;2.75;;;1.40;99.90;;;;;;5030960;28;20032;-74
2021/03/17 01:40:07;;;;;;;4.32;2.70;;;1.40;99.90;;;;;;5031405;28;20029;-74
2021/03/17 01:42:32;;;;;;;6.80;2.22;;;1.40;99.90;;;;;;5030643;28;20037;-74
2021/03/17 01:44:58;;;;;;;3.83;2.55;;;1.40;99.90;;;;;;5031380;28;20033;-74
2021/03/17 01:47:24;;;;;;;4.03;2.03;;;1.30;99.90;;;;;;5030655;28;20025;-73
2021/03/17 01:49:50;;;;;;;2.50;1.95;;;1.30;99.90;;;;;;5031136;28;20111;-73
2021/03/17 01:52:16;;;;;;;3.75;2.45;;;1.30;99.90;;;;;;5030740;28;20053;-74
2021/03/17 01:54:41;;;;;;;5.15;2.60;;;1.30;99.90;;;;;;5030886;28;20040;-73
2021/03/17 01:57:07;;;;;;;3.42;2.25;;;1.30;99.90;;;;;;5029359;28;20029;-74
2021/03/17 01:59:35;;;;;;;2.88;2.30;;;1.20;99.90;;;;;;5040531;28;20416;-74
2021/03/17 02:02:01;;;;;;;6.35;2.65;;;1.30;99.90;;;;;;5044101;28;20033;-73
2021/03/17 02:04:27;;;;;;;4.57;3.10;;;1.20;99.90;;;;;;5050444;28;20029;-74
2021/03/17 02:06:53;;;;;;;3.88;2.53;;;1.30;99.90;;;;;;5050576;28;20484;-74
2021/03/17 02:09:19;;;;;;;3.97;2.90;;;1.30;99.90;;;;;;5050647;28;20059;-74
2021/03/17 02:11:59;;;;;;;5.03;2.85;;;1.20;99.90;;;;;;5050138;28;20455;-74
2021/03/17 02:14:46;;;;;;;4.32;2.63;;;1.20;99.90;;;;;;5051007;28;20024;-74
2021/03/17 02:17:16;;;;;;;7.22;3.15;;;1.10;99.90;;;;;;5050333;28;20021;-74
2021/03/17 02:20:11;;;;;;;5.38;3.40;;;1.10;99.90;;;;;;5050784;28;20048;-74
2021/03/17 02:22:46;;;;;;;5.82;2.83;;;1.10;99.90;;;;;;5050270;28;20052;-74
2021/03/17 02:25:39;;;;;;;5.05;3.38;;;1.00;99.90;;;;;;5050593;28;20040;-74
2021/03/17 02:28:42;;;;;;;3.58;2.63;;;1.00;99.90;;;;;;5050254;28;20059;-74
2021/03/17 02:31:26;;;;;;;6.15;3.13;;;1.10;99.90;;;;;;5050216;28;20434;-74
2021/03/17 02:34:05;;;;;;;4.38;3.03;;;1.00;99.90;;;;;;5050480;28;20024;-74
2021/03/17 02:36:36;;;;;;;6.72;2.90;;;1.00;99.90;;;;;;5050291;28;20017;-74
2021/03/17 02:39:12;;;;;;;4.68;2.65;;;1.10;99.90;;;;;;5050645;28;20460;-74
2021/03/17 02:41:45;;;;;;;5.40;2.90;;;1.10;99.90;;;;;;5046201;28;20043;-74
2021/03/17 02:44:15;;;;;;;5.95;3.10;;;1.10;99.90;;;;;;5050681;28;20033;-74
2021/03/17 02:46:42;;;;;;;4.97;2.75;;;1.10;99.90;;;;;;5049072;28;20166;-74
2021/03/17 02:49:22;;;;;;;4.93;3.20;;;1.10;99.90;;;;;;5050138;28;20025;-74
2021/03/17 02:51:53;;;;;;;4.22;2.67;;;1.10;99.90;;;;;;5049597;28;20041;-74
2021/03/17 02:54:21;;;;;;;4.15;2.70;;;1.10;99.90;;;;;;5048757;28;20033;-74
2021/03/17 02:57:02;;;;;;;4.75;2.97;;;1.10;99.90;;;;;;5049799;28;20056;-74
2021/03/17 02:59:29;;;;;;;4.78;2.92;;;1.10;99.90;;;;;;5050182;28;20167;-75
2021/03/17 03:01:59;;;;;;;3.42;2.70;;;1.20;99.90;;;;;;5049441;28;20028;-74
2021/03/17 03:04:25;;;;;;;5.63;2.85;;;1.20;99.90;;;;;;5050022;28;20126;-73
2021/03/17 03:06:55;;;;;;;6.63;3.83;;;1.20;99.90;;;;;;5049590;28;20029;-74
2021/03/17 03:09:24;;;;;;;5.22;3.40;;;1.20;99.90;;;;;;5049639;28;20043;-74
2021/03/17 03:11:53;;;;;;;5.00;3.28;;;1.20;99.90;;;;;;5049323;28;20079;-74
2021/03/17 03:14:21;;;;;;;5.53;3.50;;;1.20;99.90;;;;;;5048838;28;20044;-74
2021/03/17 03:16:48;;;;;;;7.40;3.65;;;1.30;99.90;;;;;;5049720;28;20130;-74
2021/03/17 03:19:16;;;;;;;13.35;6.28;;;1.30;99.90;;;;;;5049656;28;20047;-74
2021/03/17 03:21:42;;;;;;;8.85;5.72;;;1.30;99.90;;;;;;5049454;28;20067;-74
2021/03/17 03:24:09;;;;;;;10.35;5.43;;;1.30;99.90;;;;;;5048402;28;20041;-74
2021/03/17 03:26:35;;;;;;;9.05;5.10;;;1.30;99.90;;;;;;5049501;28;20122;-73
2021/03/17 03:29:04;;;;;;;7.63;4.22;;;1.30;99.90;;;;;;5046695;28;20411;-74
2021/03/17 03:31:31;;;;;;;11.55;5.50;;;1.30;99.90;;;;;;5049347;28;20021;-74
2021/03/17 03:33:56;;;;;;;10.30;6.45;;;1.30;99.90;;;;;;5049458;28;20124;-74
2021/03/17 03:36:24;;;;;;;9.90;6.03;;;1.30;99.90;;;;;;5049494;28;20128;-74
2021/03/17 03:38:50;;;;;;;12.65;6.22;;;1.30;99.90;;;;;;5049466;28;20047;-74
2021/03/17 03:41:16;;;;;;;12.82;6.40;;;1.40;99.90;;;;;;5049291;28;20079;-74
2021/03/17 03:43:42;;;;;;;12.52;6.40;;;1.40;99.90;;;;;;5049637;28;20060;-74
2021/03/17 03:46:07;;;;;;;10.60;6.25;;;1.40;99.90;;;;;;5049290;28;20029;-72
2021/03/17 03:48:36;;;;;;;13.73;6.22;;;1.50;99.90;;;;;;5049236;28;20063;-74
2021/03/17 03:51:03;;;;;;;9.15;5.57;;;1.40;99.90;;;;;;5049064;28;20033;-74
2021/03/17 03:53:46;;;;;;;9.60;5.82;;;1.40;99.90;;;;;;5051846;28;20067;-74
2021/03/17 03:56:17;;;;;;;9.77;5.80;;;1.40;99.90;;;;;;5052780;28;20508;-73
2021/03/17 03:59:00;;;;;;;8.98;5.72;;;1.40;99.90;;;;;;5053041;28;20063;-74
2021/03/17 04:01:38;;;;;;;11.75;5.72;;;1.40;99.90;;;;;;5048880;28;20384;-74
2021/03/17 04:04:10;;;;;;;15.23;6.90;;;1.40;99.90;;;;;;5052870;28;20060;-74
2021/03/17 04:06:36;;;;;;;12.13;6.13;;;1.40;99.90;;;;;;5052703;28;20039;-74
2021/03/17 04:09:04;;;;;;;11.07;5.97;;;1.40;99.90;;;;;;5052603;28;20037;-73
2021/03/17 04:11:30;;;;;;;12.65;5.93;;;1.40;99.90;;;;;;5052034;28;20472;-74
2021/03/17 04:14:01;;;;;;;10.85;6.10;;;1.40;99.90;;;;;;5053003;28;20027;-74
2021/03/17 04:16:29;;;;;;;9.75;5.50;;;1.40;99.90;;;;;;5049891;28;20021;-74
2021/03/17 04:18:56;;;;;;;11.00;5.35;;;1.40;99.90;;;;;;5052383;28;20480;-74
2021/03/17 04:21:26;;;;;;;12.82;5.63;;;1.40;99.90;;;;;;5052054;28;20041;-74
2021/03/17 04:23:55;;;;;;;8.40;5.28;;;1.50;99.90;;;;;;5053016;28;20029;-73
2021/03/17 04:26:23;;;;;;;10.50;5.25;;;1.60;99.90;;;;;;5052455;28;20041;-73
2021/03/17 04:28:53;;;;;;;10.30;5.68;;;1.50;99.90;;;;;;5052624;28;20502;-73
2021/03/17 04:31:20;;;;;;;9.50;5.35;;;1.40;99.90;;;;;;5052228;28;20033;-73
2021/03/17 04:33:47;;;;;;;10.98;5.85;;;1.40;99.90;;;;;;5052548;28;20025;-74
2021/03/17 04:36:14;;;;;;;8.65;5.15;;;1.40;99.90;;;;;;5052173;28;20025;-74
2021/03/17 04:38:40;;;;;;;10.85;5.40;;;1.40;99.90;;;;;;5052098;28;20033;-74
2021/03/17 04:41:07;;;;;;;10.23;5.68;;;1.40;99.90;;;;;;5051799;28;20124;-73
2021/03/17 04:43:37;;;;;;;10.73;5.85;;;1.40;99.90;;;;;;5052474;28;20032;-73
2021/03/17 04:46:03;;;;;;;10.27;5.90;;;1.30;99.90;;;;;;5052308;28;20041;-73
2021/03/17 04:48:29;;;;;;;10.23;5.65;;;1.40;99.90;;;;;;5051728;28;20063;-74
2021/03/17 04:50:57;;;;;;;11.77;6.00;;;1.40;99.90;;;;;;5051216;28;20060;-74
2021/03/17 04:53:23;;;;;;;12.38;6.35;;;1.40;99.90;;;;;;5051104;28;20027;-74
2021/03/17 04:55:49;;;;;;;8.73;4.97;;;1.40;99.90;;;;;;5052238;28;20037;-74
2021/03/17 04:58:22;;;;;;;10.57;4.60;;;1.40;99.90;;;;;;5051689;28;20043;-74
2021/03/17 05:00:49;;;;;;;8.10;4.47;;;1.40;99.90;;;;;;5050601;28;20571;-73
2021/03/17 05:03:19;;;;;;;8.43;4.13;;;1.40;99.90;;;;;;5047956;28;20028;-74
2021/03/17 05:05:48;;;;;;;7.85;4.22;;;1.40;99.90;;;;;;5049981;28;20630;-74
2021/03/17 05:08:17;;;;;;;7.00;3.97;;;1.40;99.90;;;;;;5051199;28;20407;-74
2021/03/17 05:10:44;;;;;;;8.32;4.85;;;1.30;99.90;;;;;;5051258;28;20507;-74
2021/03/17 05:13:12;;;;;;;8.57;4.53;;;1.40;99.90;;;;;;5051895;28;20506;-74
2021/03/17 05:15:39;;;;;;;8.15;4.60;;;1.40;99.90;;;;;;5049501;28;20040;-74
2021/03/17 05:18:07;;;;;;;7.05;4.43;;;1.30;99.90;;;;;;5050949;28;20025;-74
2021/03/17 05:20:35;;;;;;;8.80;4.75;;;1.30;99.90;;;;;;5050761;28;20045;-74
2021/03/17 05:23:01;;;;;;;9.57;4.63;;;1.30;99.90;;;;;;5051535;28;20041;-74
2021/03/17 05:25:29;;;;;;;9.02;4.85;;;1.30;99.90;;;;;;5051633;28;20083;-74
2021/03/17 05:28:04;;;;;;;8.20;4.50;;;1.30;99.90;;;;;;5050889;28;20032;-74
2021/03/17 05:30:38;;;;;;;8.50;4.40;;;1.30;99.90;;;;;;5050874;28;20033;-74
2021/03/17 05:33:06;;;;;;;9.00;4.57;;;1.30;99.90;;;;;;5051432;28;20053;-73
2021/03/17 05:35:32;;;;;;;10.02;4.57;;;1.30;99.90;;;;;;5050190;28;20021;-74
2021/03/17 05:37:58;;;;;;;10.55;5.55;;;1.30;99.90;;;;;;5049313;28;20091;-74
2021/03/17 05:40:24;;;;;;;12.52;6.07;;;1.30;99.90;;;;;;5050989;28;20029;-74
2021/03/17 05:42:50;;;;;;;10.15;4.68;;;1.20;99.90;;;;;;5050714;28;20094;-74
2021/03/17 05:45:21;;;;;;;6.45;4.22;;;1.20;99.90;;;;;;5051182;28;20032;-74
2021/03/17 05:47:48;;;;;;;9.43;5.38;;;1.20;99.90;;;;;;5050767;28;20032;-74
2021/03/17 05:50:19;;;;;;;7.15;4.47;;;1.20;99.90;;;;;;5050837;28;20025;-74
2021/03/17 05:52:45;;;;;;;9.50;4.95;;;1.20;99.90;;;;;;5050637;28;20037;-73
2021/03/17 05:55:13;;;;;;;10.07;5.20;;;1.20;99.90;;;;;;5050881;28;20105;-73
2021/03/17 05:57:42;;;;;;;9.38;5.43;;;1.30;99.90;;;;;;5050541;28;20033;-74
2021/03/17 06:00:13;;;;;;;8.07;4.60;;;1.30;99.90;;;;;;5050811;28;20025;-74
2021/03/17 06:02:40;;;;;;;7.65;4.85;;;1.30;99.90;;;;;;5045300;28;20033;-73
2021/03/17 06:05:07;;;;;;;12.20;5.38;;;1.30;99.90;;;;;;5049497;28;20033;-74
2021/03/17 06:08:13;;;;;;;8.40;5.28;;;1.40;99.90;;;;;;5030196;28;20037;-74
2021/03/17 06:10:39;;;;;;;8.02;4.68;;;1.40;99.90;;;;;;5013565;28;20116;-74
2021/03/17 06:13:08;;;;;;;7.40;4.53;;;1.40;99.90;;;;;;5041113;28;20040;-74
2021/03/17 06:15:35;;;;;;;8.82;4.90;;;1.40;99.90;;;;;;5046268;28;20025;-74
2021/03/17 06:18:28;;;;;;;8.20;4.68;;;1.40;99.90;;;;;;5049876;28;20037;-74
2021/03/17 06:20:55;;;;;;;12.63;5.57;;;1.50;99.90;;;;;;5045497;28;20214;-73
2021/03/17 06:23:21;;;;;;;11.43;5.55;;;1.50;99.90;;;;;;5050480;28;20036;-74
2021/03/17 06:25:48;;;;;;;8.70;4.75;;;1.50;99.90;;;;;;5050534;28;20041;-74
2021/03/17 06:28:14;;;;;;;7.43;5.07;;;1.60;99.90;;;;;;5044084;28;20063;-74
2021/03/17 06:30:41;;;;;;;9.10;4.70;;;1.60;99.90;;;;;;5042783;28;20029;-74
2021/03/17 06:33:06;;;;;;;10.95;5.80;;;1.70;99.90;;;;;;5048635;28;20055;-74
2021/03/17 06:35:32;;;;;;;9.65;5.40;;;1.70;99.90;;;;;;5050264;28;20029;-74
2021/03/17 06:37:59;;;;;;;9.10;5.30;;;1.70;99.90;;;;;;5049519;28;20033;-74
2021/03/17 06:40:27;;;;;;;7.82;4.63;;;1.70;99.90;;;;;;5050055;28;20025;-74
2021/03/17 06:42:55;;;;;;;7.82;4.80;;;1.70;99.90;;;;;;5050272;28;20114;-74
2021/03/17 06:45:44;;;;;;;8.10;5.10;;;1.70;99.90;;;;;;5050119;28;20143;-74
2021/03/17 06:48:29;;;;;;;11.02;5.10;;;1.80;99.90;;;;;;5049904;28;20461;-74
2021/03/17 06:51:13;;;;;;;8.88;4.80;;;1.80;99.90;;;;;;5049017;28;20035;-73
2021/03/17 06:53:44;;;;;;;7.25;4.47;;;1.80;99.90;;;;;;5049073;28;20047;-74
2021/03/17 06:56:27;;;;;;;8.85;5.47;;;1.80;99.90;;;;;;5049801;28;20029;-73
2021/03/17 06:58:54;;;;;;;7.90;5.25;;;1.80;99.90;;;;;;5050238;28;20534;-73
2021/03/17 07:01:34;;;;;;;7.22;4.32;;;1.80;99.90;;;;;;5046542;28;20672;-73
2021/03/17 07:04:03;;;;;;;8.40;4.95;;;1.80;99.90;;;;;;5058398;28;20498;-74
2021/03/17 07:06:30;;;;;;;9.20;4.82;;;1.90;99.90;;;;;;5081740;28;20033;-74
2021/03/17 07:08:57;;;;;;;9.70;5.13;;;1.90;99.90;;;;;;5049798;28;20086;-73
2021/03/17 07:11:30;;;;;;;8.95;4.60;;;1.90;99.90;;;;;;5049517;28;20029;-73
2021/03/17 07:14:02;;;;;;;8.63;4.63;;;1.90;99.90;;;;;;5050085;28;20025;-74
2021/03/17 07:16:35;;;;;;;9.52;5.05;;;2.00;99.90;;;;;;5049548;28;20037;-74
2021/03/17 07:19:02;;;;;;;8.55;4.82;;;2.00;99.90;;;;;;5049586;28;20132;-74
2021/03/17 07:21:30;;;;;;;8.88;5.05;;;2.10;99.90;;;;;;5049284;28;20075;-74
2021/03/17 07:23:56;;;;;;;12.30;5.45;;;2.20;99.90;;;;;;5050004;28;20131;-74
2021/03/17 07:26:34;;;;;;;7.38;5.00;;;2.20;99.90;;;;;;5049326;28;20120;-74
2021/03/17 07:29:15;;;;;;;8.90;4.90;;;2.30;99.90;;;;;;5052926;28;20029;-74
2021/03/17 07:31:47;;;;;;;8.63;4.70;;;2.30;99.90;;;;;;5049802;28;20488;-74
2021/03/17 07:34:17;;;;;;;7.45;4.78;;;2.40;99.90;;;;;;5046441;28;20104;-74
2021/03/17 07:37:07;;;;;;;7.75;4.75;;;2.40;99.90;;;;;;5079471;28;20024;-73
2021/03/17 07:39:38;;;;;;;6.72;4.35;;;2.50;99.90;;;;;;5052247;28;20029;-73
2021/03/17 07:42:06;;;;;;;5.35;4.00;;;2.60;99.90;;;;;;5049249;28;20044;-74
2021/03/17 07:44:35;;;;;;;7.88;4.65;;;2.60;99.90;;;;;;5047652;28;20079;-74
2021/03/17 07:47:04;;;;;;;7.15;4.40;;;2.60;99.90;;;;;;5051617;28;20048;-74
2021/03/17 07:49:29;;;;;;;7.82;4.07;;;2.80;99.90;;;;;;5051805;28;20068;-74
2021/03/17 07:52:01;;;;;;;8.73;3.67;;;2.90;99.90;;;;;;5052800;28;20045;-74
2021/03/17 07:54:35;;;;;;;6.25;3.63;;;2.90;99.90;;;;;;5053334;28;20025;-75
2021/03/17 07:57:03;;;;;;;12.73;4.00;;;3.10;99.90;;;;;;5052876;28;20070;-75
2021/03/17 07:59:29;;;;;;;6.50;3.63;;;3.20;99.90;;;;;;5051953;28;20040;-75
2021/03/17 08:01:57;;;;;;;6.22;3.58;;;3.30;99.90;;;;;;5051253;28;20033;-75
2021/03/17 08:04:27;;;;;;;5.05;2.97;;;3.40;99.90;;;;;;5085042;28;20045;-75
2021/03/17 08:07:00;;;;;;;4.63;3.05;;;3.50;99.90;;;;;;5050374;28;20098;-74
2021/03/17 08:09:26;;;;;;;6.45;3.92;;;3.60;99.90;;;;;;5050332;28;20033;-75
2021/03/17 08:11:55;;;;;;;5.88;3.17;;;3.70;99.90;;;;;;5050360;28;20029;-74
2021/03/17 08:14:23;;;;;;;4.68;3.22;;;3.80;99.90;;;;;;5051590;28;20377;-75
2021/03/17 08:16:49;;;;;;;9.32;2.90;;;3.90;99.90;;;;;;5034669;28;20029;-75
2021/03/17 08:19:28;;;;;;;4.50;2.20;;;4.00;99.90;;;;;;5052353;28;20075;-74
2021/03/17 08:21:57;;;;;;;4.20;2.20;;;4.10;99.90;;;;;;5052185;28;20033;-75
2021/03/17 08:24:30;;;;;;;3.15;2.13;;;4.10;99.90;;;;;;5052739;28;20102;-75
2021/03/17 08:26:57;;;;;;;3.53;2.08;;;4.30;99.90;;;;;;5067533;28;20033;-74
2021/03/17 08:29:23;;;;;;;4.00;2.10;;;4.40;99.90;;;;;;5084582;28;20098;-75
2021/03/17 08:31:52;;;;;;;6.28;2.50;;;4.50;99.90;;;;;;5051909;28;20104;-75
2021/03/17 08:34:18;;;;;;;5.75;2.22;;;4.60;99.90;;;;;;5052192;28;20045;-75
2021/03/17 08:36:51;;;;;;;4.40;2.00;;;4.70;99.90;;;;;;5052109;28;20032;-75
2021/03/17 08:39:29;;;;;;;3.90;2.63;;;4.80;99.90;;;;;;5083347;28;20036;-75
2021/03/17 08:41:57;;;;;;;3.17;2.20;;;4.90;99.90;;;;;;5051904;28;20021;-76
2021/03/17 08:44:31;;;;;;;5.18;2.22;;;5.00;99.90;;;;;;5051222;28;20029;-75
2021/03/17 08:47:17;;;;;;;3.10;2.35;;;4.80;99.90;;;;;;5051760;28;20033;-74
2021/03/17 08:49:44;;;;;;;3.75;2.15;;;4.80;99.90;;;;;;5052106;28;20415;-75
2021/03/17 08:52:17;;;;;;;5.03;2.70;;;4.90;99.90;;;;;;5051703;28;20094;-75
2021/03/17 08:54:46;;;;;;;4.93;2.13;;;5.00;99.90;;;;;;5052198;28;20515;-74
2021/03/17 08:57:14;;;;;;;3.00;2.33;;;5.10;99.90;;;;;;5084170;28;20041;-75
2021/03/17 08:59:46;;;;;;;6.75;2.75;;;5.10;99.90;;;;;;5052034;28;20025;-75
2021/03/17 09:02:25;;;;;;;3.30;1.73;;;5.00;99.90;;;;;;5047649;28;20021;-74
2021/03/17 09:05:02;;;;;;;2.95;1.83;;;4.90;99.90;;;;;;5051649;28;20115;-74
2021/03/17 09:07:35;;;;;;;4.70;1.50;;;4.80;99.90;;;;;;5050384;28;20044;-75
2021/03/17 09:10:06;;;;;;;3.75;1.88;;;4.70;99.90;;;;;;5051683;28;20033;-75
2021/03/17 09:12:32;;;;;;;1.33;1.20;;;4.60;99.90;;;;;;5051438;28;20064;-75
2021/03/17 09:15:10;;;;;;;2.22;1.17;;;4.60;99.90;;;;;;5051796;28;20110;-75
2021/03/17 09:17:53;;;;;;;2.10;0.93;;;4.60;99.90;;;;;;5050630;28;20025;-75
2021/03/17 09:20:30;;;;;;;3.40;1.40;;;4.70;99.90;;;;;;5050019;28;20032;-74
2021/03/17 09:23:08;;;;;;;1.38;0.80;;;4.70;99.90;;;;;;5051841;28;20500;-76
2021/03/17 09:25:50;;;;;;;3.53;1.00;;;4.80;99.90;;;;;;5050379;28;20075;-75
2021/03/17 09:28:32;;;;;;;5.88;0.93;;;4.80;99.90;;;;;;5050861;28;20080;-75
2021/03/17 09:31:05;;;;;;;0.85;0.70;;;4.90;99.90;;;;;;5050914;28;20496;-74
2021/03/17 09:33:39;;;;;;;1.75;0.77;;;5.10;99.90;;;;;;5051344;28;20028;-76
2021/03/17 09:36:20;;;;;;;1.20;0.40;;;5.30;99.90;;;;;;5051401;28;20029;-75
2021/03/17 09:38:53;;;;;;;3.65;0.70;;;5.50;99.90;;;;;;5051451;28;20056;-76
2021/03/17 09:41:20;;;;;;;1.75;0.68;;;5.60;99.90;;;;;;5033125;28;20403;-75
2021/03/17 09:43:52;;;;;;;0.90;0.47;;;5.70;99.90;;;;;;5051416;28;20074;-75
2021/03/17 09:46:22;;;;;;;1.48;0.57;;;5.60;99.90;;;;;;5049489;28;20033;-75
2021/03/17 09:48:50;;;;;;;1.25;0.50;;;5.50;99.90;;;;;;5049739;28;20029;-75
2021/03/17 09:51:22;;;;;;;1.50;0.40;;;5.20;99.90;;;;;;5049000;28;20480;-75
2021/03/17 09:53:49;;;;;;;0.75;0.60;;;5.00;99.90;;;;;;5049879;28;20037;-75
2021/03/17 09:56:15;;;;;;;2.28;0.40;;;4.90;99.90;;;;;;5049370;28;20079;-74
2021/03/17 09:58:41;;;;;;;0.90;0.35;;;4.80;99.90;;;;;;5050985;28;20070;-75
2021/03/17 10:01:11;;;;;;;1.88;0.68;;;4.80;99.90;;;;;;5049174;28;20029;-76
2021/03/17 10:03:42;;;;;;;1.15;0.60;;;4.70;99.90;;;;;;5050517;28;20104;-75
2021/03/17 10:06:08;;;;;;;1.55;0.50;;;4.80;99.90;;;;;;5050719;28;20033;-73
2021/03/17 10:08:33;;;;;;;1.13;0.47;;;4.80;99.90;;;;;;5050500;28;20033;-76
2021/03/17 10:11:00;;;;;;;3.90;0.50;;;4.90;99.90;;;;;;5050371;28;20095;-75
2021/03/17 10:13:26;;;;;;;2.25;0.50;;;5.00;99.90;;;;;;5049711;28;20545;-76
2021/03/17 10:15:54;;;;;;;1.67;0.57;;;5.00;99.90;;;;;;5050574;28;20029;-75
2021/03/17 10:18:20;;;;;;;1.05;0.50;;;5.10;99.90;;;;;;5050114;28;20033;-75
2021/03/17 10:20:46;;;;;;;1.75;0.68;;;5.20;99.90;;;;;;5050161;28;20044;-75
2021/03/17 10:23:11;;;;;;;2.28;0.55;;;5.30;99.90;;;;;;5051174;28;20387;-76
2021/03/17 10:25:37;;;;;;;0.85;0.40;;;5.30;99.90;;;;;;5050662;28;20033;-75
2021/03/17 10:28:05;;;;;;;0.47;0.47;;;5.30;99.90;;;;;;5049956;28;20024;-75
2021/03/17 10:30:32;;;;;;;1.10;0.30;;;5.30;99.90;;;;;;5049719;28;20553;-76
2021/03/17 10:33:02;;;;;;;0.82;0.25;;;5.20;99.90;;;;;;5043474;28;20044;-75
2021/03/17 10:35:32;;;;;;;1.08;0.38;;;5.10;99.90;;;;;;5045385;28;20040;-75
2021/03/17 10:38:00;;;;;;;0.25;0.25;;;4.90;99.90;;;;;;5046394;28;20124;-74
2021/03/17 10:40:27;;;;;;;0.65;0.47;;;4.80;99.90;;;;;;5026862;28;20037;-75
2021/03/17 10:42:58;;;;;;;2.25;0.50;;;4.60;99.90;;;;;;5026488;28;20033;-75
2021/03/17 10:45:33;;;;;;;1.58;0.40;;;4.60;99.90;;;;;;5024392;28;20036;-76
2021/03/17 10:48:10;;;;;;;3.97;0.60;;;4.50;99.90;;;;;;5025361;28;20122;-75
2021/03/17 10:50:37;;;;;;;2.78;0.40;;;4.40;99.90;;;;;;5026255;28;20283;-75
2021/03/17 10:53:24;;;;;;;4.20;0.38;;;4.30;99.90;;;;;;5042833;28;20044;-75
2021/03/17 10:55:51;;;;;;;1.38;0.40;;;4.20;99.90;;;;;;5032458;28;20027;-74
2021/03/17 10:58:20;;;;;;;1.23;0.38;;;4.20;99.90;;;;;;5036845;28;20044;-75
2021/03/17 11:00:51;;;;;;;0.40;0.30;;;4.20;99.90;;;;;;5038114;28;20025;-74
2021/03/17 11:03:40;;;;;;;3.42;0.60;;;4.30;99.90;;;;;;5040925;28;20071;-74
2021/03/17 11:06:35;;;;;;;0.30;0.30;;;4.40;99.90;;;;;;5046691;28;20036;-74
2021/03/17 11:09:00;;;;;;;0.57;0.40;;;4.50;99.90;;;;;;5073127;28;20032;-75
2021/03/17 11:11:26;;;;;;;1.45;0.35;;;4.60;99.90;;;;;;5049368;28;20036;-75
2021/03/17 11:13:52;;;;;;;2.40;0.88;;;4.70;99.90;;;;;;5050166;28;20025;-75
2021/03/17 11:16:37;;;;;;;1.98;0.65;;;4.80;99.90;;;;;;5049632;28;20087;-74
2021/03/17 11:19:11;;;;;;;0.40;0.40;;;4.90;99.90;;;;;;5050298;28;20028;-74
2021/03/17 11:21:39;;;;;;;0.68;0.50;;;5.10;99.90;;;;;;5049652;28;20116;-74
2021/03/17 11:24:19;;;;;;;2.38;0.63;;;5.30;99.90;;;;;;5050609;28;20506;-74
2021/03/17 11:26:45;;;;;;;3.58;0.70;;;5.40;99.90;;;;;;5050097;28;20550;-75
2021/03/17 11:29:23;;;;;;;2.30;0.50;;;5.50;99.90;;;;;;5050001;28;20040;-74
2021/03/17 11:31:51;;;;;;;1.02;0.70;;;5.60;99.90;;;;;;5045472;28;20673;-75
2021/03/17 11:34:19;;;;;;;2.08;0.40;;;5.60;99.90;;;;;;5044118;28;20399;-76
2021/03/17 11:36:46;;;;;;;0.88;0.60;;;5.70;99.90;;;;;;5082226;28;20561;-75
2021/03/17 11:39:14;;;;;;;1.92;0.40;;;5.60;99.90;;;;;;5079846;28;20029;-74
2021/03/17 11:41:41;;;;;;;0.30;0.30;;;5.50;99.90;;;;;;5049043;28;20112;-73
2021/03/17 11:44:12;;;;;;;1.30;0.50;;;5.30;99.90;;;;;;5050082;28;20503;-75
2021/03/17 11:46:37;;;;;;;0.55;0.50;;;5.30;99.90;;;;;;5044266;28;20025;-75
2021/03/17 11:49:03;;;;;;;1.20;0.50;;;5.30;99.90;;;;;;5049015;28;20476;-75
2021/03/17 11:51:29;;;;;;;4.05;0.68;;;5.20;99.90;;;;;;5048614;28;20560;-77
2021/03/17 11:53:55;;;;;;;3.80;0.68;;;5.30;99.90;;;;;;5049505;28;20025;-77
2021/03/17 11:56:21;;;;;;;2.42;0.60;;;5.30;99.90;;;;;;5064469;28;20044;-75
2021/03/17 11:58:49;;;;;;;0.68;0.60;;;5.30;99.90;;;;;;5050151;28;20037;-75
2021/03/17 12:01:14;;;;;;;1.05;0.63;;;5.20;99.90;;;;;;5080324;28;20039;-75
2021/03/17 12:03:41;;;;;;;1.92;0.80;;;5.10;99.90;;;;;;5081352;28;20038;-75
2021/03/17 12:06:07;;;;;;;2.60;0.80;;;5.00;99.90;;;;;;5048814;28;20681;-75
2021/03/17 12:08:34;;;;;;;1.00;0.70;;;5.00;99.90;;;;;;5047666;28;20407;-76
2021/03/17 12:10:59;;;;;;;3.05;0.50;;;5.00;99.90;;;;;;5081702;28;20108;-76
2021/03/17 12:13:25;;;;;;;2.70;0.70;;;5.00;99.90;;;;;;5049312;28;20148;-75
2021/03/17 12:15:51;;;;;;;0.90;0.60;;;5.00;99.90;;;;;;5049027;28;20075;-75
2021/03/17 12:18:18;;;;;;;0.70;0.50;;;5.00;99.90;;;;;;5048256;28;20056;-74
2021/03/17 12:20:44;;;;;;;3.40;0.75;;;5.00;99.90;;;;;;5078969;28;20029;-76
2021/03/17 12:23:10;;;;;;;0.98;0.77;;;5.00;99.90;;;;;;5081010;28;20048;-75
2021/03/17 12:25:36;;;;;;;1.00;0.63;;;5.00;99.90;;;;;;5049918;28;20571;-76
2021/03/17 12:28:02;;;;;;;3.63;0.80;;;5.00;99.90;;;;;;5080751;28;20036;-75
2021/03/17 12:30:27;;;;;;;0.55;0.55;;;5.10;99.90;;;;;;5048515;28;20108;-76
2021/03/17 12:32:54;;;;;;;0.60;0.60;;;5.20;99.90;;;;;;5081639;28;20025;-75
2021/03/17 12:35:22;;;;;;;2.38;0.57;;;5.20;99.90;;;;;;5048815;28;20518;-75
2021/03/17 12:37:50;;;;;;;2.60;0.73;;;5.30;99.90;;;;;;5048536;28;20029;-75
2021/03/17 12:40:22;;;;;;;2.20;1.63;;;5.30;99.90;;;;;;5081722;28;20033;-75
2021/03/17 12:42:49;;;;;;;1.30;0.75;;;5.40;99.90;;;;;;5048300;28;20130;-75
2021/03/17 12:45:18;;;;;;;3.42;0.80;;;5.50;99.90;;;;;;5048294;28;20025;-74
2021/03/17 12:47:45;;;;;;;3.22;0.70;;;5.50;99.90;;;;;;5049029;28;20048;-75
2021/03/17 12:50:13;;;;;;;2.78;1.00;;;5.50;99.90;;;;;;5048502;28;20499;-76
2021/03/17 12:52:39;;;;;;;3.13;0.77;;;5.60;99.90;;;;;;5047996;28;20029;-76
2021/03/17 12:55:07;;;;;;;1.27;0.80;;;5.70;99.90;;;;;;5049327;28;20416;-75
2021/03/17 12:57:33;;;;;;;2.90;0.80;;;5.80;99.90;;;;;;5047967;28;20029;-75
2021/03/17 12:59:59;;;;;;;3.42;1.20;;;5.80;99.90;;;;;;5047969;28;20024;-75
2021/03/17 13:02:25;;;;;;;2.63;0.63;;;5.90;99.90;;;;;;5038721;28;20403;-76
2021/03/17 13:04:53;;;;;;;2.50;0.90;;;5.90;99.90;;;;;;5060357;28;20041;-75
2021/03/17 13:07:20;;;;;;;5.35;1.00;;;5.90;99.90;;;;;;5027905;28;20124;-74
2021/03/17 13:09:46;;;;;;;1.77;0.93;;;5.90;99.90;;;;;;5027784;28;20412;-75
2021/03/17 13:12:12;;;;;;;2.08;0.60;;;5.70;99.90;;;;;;5026481;28;20029;-76
2021/03/17 13:14:38;;;;;;;2.35;0.70;;;5.60;99.90;;;;;;5060335;28;20033;-75